Time;durP1;ratioP1;P1;durP2;ratioP2;P2;SDS_P1;SDS_P2;PMS_P1;PMS_P2;Temp;Humidity;BMP_temperature;BMP_pressure;BME280_temperature;BME280_humidity;BME280_pressure;Samples;Min_cycle;Max_cycle;Signal;HPM_P1;HPM_P2
2023/09/10 00:02:08;;;;;;;7.90;7.10;;;;;;;18.37;100.00;96104.53;4993617;28;24443;-75
2023/09/10 00:04:35;;;;;;;10.10;7.22;;;;;;;18.38;100.00;96099.16;4993817;28;24424;-75
2023/09/10 00:07:01;;;;;;;9.13;7.18;;;;;;;18.36;100.00;96100.28;4993497;28;24436;-75
2023/09/10 00:09:29;;;;;;;9.77;7.68;;;;;;;18.29;100.00;96109.66;4993580;28;24429;-75
2023/09/10 00:11:55;;;;;;;13.00;8.15;;;;;;;18.35;100.00;96106.47;4993596;28;24428;-75
2023/09/10 00:14:22;;;;;;;10.45;7.53;;;;;;;18.35;100.00;96109.09;4993481;28;24449;-77
2023/09/10 00:16:48;;;;;;;11.63;7.50;;;;;;;18.41;100.00;96105.09;4993486;28;24421;-76
2023/09/10 00:19:15;;;;;;;8.87;6.80;;;;;;;18.43;100.00;96105.78;4993996;28;24428;-77
2023/09/10 00:21:42;;;;;;;8.82;6.55;;;;;;;18.42;100.00;96104.97;4993206;28;24443;-77
2023/09/10 00:24:10;;;;;;;8.40;6.57;;;;;;;18.36;100.00;96106.34;4992917;28;24417;-77
2023/09/10 00:26:38;;;;;;;7.23;6.40;;;;;;;18.25;100.00;96108.25;4993812;28;24464;-77
2023/09/10 00:29:05;;;;;;;12.98;7.22;;;;;;;18.16;100.00;96104.63;4993780;28;24447;-77
2023/09/10 00:31:34;;;;;;;9.57;6.53;;;;;;;18.15;100.00;96113.47;4993212;28;24428;-78
2023/09/10 00:34:00;;;;;;;9.90;6.53;;;;;;;18.17;100.00;96108.06;4993040;28;24453;-77
2023/09/10 00:36:27;;;;;;;8.27;6.30;;;;;;;18.10;100.00;96111.25;4992991;28;24440;-77
2023/09/10 00:38:53;;;;;;;11.73;7.57;;;;;;;18.09;100.00;96109.56;4993518;28;24413;-77
2023/09/10 00:41:20;;;;;;;9.95;7.18;;;;;;;18.15;100.00;96108.22;4993213;28;24793;-77
2023/09/10 00:43:47;;;;;;;13.05;7.32;;;;;;;18.07;100.00;96102.84;4993462;28;24429;-77
2023/09/10 00:46:14;;;;;;;11.38;8.02;;;;;;;18.13;100.00;96104.91;4993125;28;24436;-77
2023/09/10 00:48:40;;;;;;;10.43;7.60;;;;;;;18.17;100.00;96102.84;4992576;28;24419;-77
2023/09/10 00:51:07;;;;;;;10.00;7.38;;;;;;;18.18;100.00;96101.91;4992691;28;24421;-78
2023/09/10 00:53:34;;;;;;;9.17;7.00;;;;;;;18.23;100.00;96097.06;4993355;28;24450;-77
2023/09/10 00:56:00;;;;;;;12.93;7.85;;;;;;;18.12;100.00;96096.22;4997379;28;24461;-77
2023/09/10 00:58:27;;;;;;;9.73;6.95;;;;;;;18.16;100.00;96099.38;4997244;28;24432;-77
2023/09/10 01:00:55;;;;;;;8.88;7.25;;;;;;;18.07;100.00;96090.56;4996279;28;24432;-77
2023/09/10 01:03:22;;;;;;;9.48;7.50;;;;;;;17.90;100.00;96096.44;4997117;28;24425;-77
2023/09/10 01:05:49;;;;;;;8.73;6.80;;;;;;;17.83;100.00;96101.38;4996876;28;24428;-77
2023/09/10 01:08:15;;;;;;;7.90;6.65;;;;;;;17.83;100.00;96095.31;4996981;28;24433;-77
2023/09/10 01:10:50;;;;;;;10.63;6.68;;;;;;;17.84;100.00;96100.44;4995958;28;24436;-77
2023/09/10 01:13:27;;;;;;;11.32;6.68;;;;;;;17.83;100.00;96096.13;4995059;28;24889;-77
2023/09/10 01:16:00;;;;;;;8.60;6.82;;;;;;;17.85;100.00;96104.69;4994693;28;24464;-77
2023/09/10 01:18:32;;;;;;;8.77;6.87;;;;;;;17.67;100.00;96099.22;4994456;28;24975;-77
2023/09/10 01:21:33;;;;;;;9.27;6.90;;;;;;;17.60;100.00;96099.88;4994543;28;24417;-77
2023/09/10 01:24:13;;;;;;;10.27;7.13;;;;;;;17.57;100.00;96100.97;4994579;28;24994;-77
2023/09/10 01:26:41;;;;;;;8.10;7.13;;;;;;;17.54;100.00;96098.63;4994437;28;24431;-77
2023/09/10 01:29:12;;;;;;;9.15;7.38;;;;;;;17.54;100.00;96093.38;4995681;28;24428;-77
2023/09/10 01:31:41;;;;;;;9.00;7.45;;;;;;;17.55;100.00;96095.03;4995101;28;24951;-77
2023/09/10 01:34:13;;;;;;;9.27;7.57;;;;;;;17.56;100.00;96095.88;4994732;28;24987;-77
2023/09/10 01:36:43;;;;;;;11.37;7.40;;;;;;;17.45;100.00;96088.09;4995170;28;24421;-77
2023/09/10 01:39:14;;;;;;;8.38;7.05;;;;;;;17.41;100.00;96090.16;4995356;28;24428;-77
2023/09/10 01:41:45;;;;;;;11.23;7.57;;;;;;;17.43;100.00;96093.47;4995117;28;24424;-77
2023/09/10 01:44:14;;;;;;;13.52;7.57;;;;;;;17.46;100.00;96092.38;4995811;28;24412;-77
2023/09/10 01:46:42;;;;;;;9.18;7.43;;;;;;;17.47;100.00;96094.03;4995493;28;24508;-77
2023/09/10 01:49:08;;;;;;;9.07;7.32;;;;;;;17.50;100.00;96096.38;4995692;28;24421;-77
2023/09/10 01:51:35;;;;;;;11.07;7.05;;;;;;;17.51;100.00;96096.25;4995526;28;24412;-77
2023/09/10 01:54:01;;;;;;;9.35;7.85;;;;;;;17.49;100.00;96089.50;4995471;28;24429;-76
2023/09/10 01:56:28;;;;;;;13.38;7.57;;;;;;;17.37;100.00;96093.97;4994983;28;24480;-76
2023/09/10 01:58:56;;;;;;;11.63;8.25;;;;;;;17.30;100.00;96087.59;4995323;28;24428;-76
2023/09/10 02:01:22;;;;;;;12.25;7.72;;;;;;;17.30;100.00;96085.81;4995151;28;24409;-76
2023/09/10 02:03:49;;;;;;;12.70;9.00;;;;;;;17.38;100.00;96085.16;4995685;28;24428;-76
2023/09/10 02:06:15;;;;;;;13.40;8.75;;;;;;;17.40;100.00;96085.88;4993871;28;24425;-76
2023/09/10 02:08:42;;;;;;;9.57;8.10;;;;;;;17.42;100.00;96084.75;4995826;28;24428;-76
2023/09/10 02:11:08;;;;;;;9.23;8.15;;;;;;;17.35;100.00;96078.41;4995147;28;24409;-76
2023/09/10 02:13:35;;;;;;;11.52;8.38;;;;;;;17.25;100.00;96079.31;4995058;28;24503;-76
2023/09/10 02:16:03;;;;;;;12.73;8.18;;;;;;;17.23;100.00;96079.44;4994933;28;24459;-76
2023/09/10 02:18:30;;;;;;;10.10;7.93;;;;;;;17.30;100.00;96075.34;4994508;28;24489;-76
2023/09/10 02:20:57;;;;;;;10.38;7.97;;;;;;;17.33;100.00;96079.50;4994297;28;24448;-76
2023/09/10 02:23:23;;;;;;;10.10;7.90;;;;;;;17.37;100.00;96073.03;4994561;28;24413;-76
2023/09/10 02:25:50;;;;;;;10.55;7.65;;;;;;;17.36;100.00;96089.72;4994491;28;24429;-76
2023/09/10 02:28:21;;;;;;;10.95;7.75;;;;;;;17.32;100.00;96081.28;4994624;28;24497;-76
2023/09/10 02:30:49;;;;;;;13.20;8.25;;;;;;;17.35;100.00;96080.19;4994445;28;24996;-76
2023/09/10 02:33:16;;;;;;;9.25;8.27;;;;;;;17.36;100.00;96080.06;4994239;28;24421;-76
2023/09/10 02:35:43;;;;;;;12.43;8.77;;;;;;;17.31;100.00;96076.16;4994464;28;24456;-76
2023/09/10 02:38:09;;;;;;;9.23;8.30;;;;;;;17.32;100.00;96083.09;4994337;28;24432;-76
2023/09/10 02:40:36;;;;;;;14.67;7.50;;;;;;;17.33;100.00;96077.72;4994872;28;24421;-77
2023/09/10 02:43:02;;;;;;;11.25;7.40;;;;;;;17.36;100.00;96076.63;4993830;28;24429;-76
2023/09/10 02:45:29;;;;;;;9.93;6.95;;;;;;;17.27;100.00;96074.78;4994130;28;24420;-76
2023/09/10 02:47:55;;;;;;;9.10;6.80;;;;;;;17.21;100.00;96076.13;4994031;28;24982;-76
2023/09/10 02:50:23;;;;;;;9.35;6.88;;;;;;;17.20;100.00;96077.06;4994337;28;24991;-76
2023/09/10 02:52:49;;;;;;;7.63;6.82;;;;;;;17.30;100.00;96077.13;4994003;28;24412;-77
2023/09/10 02:55:16;;;;;;;10.02;7.18;;;;;;;17.26;100.00;96075.75;4994420;28;24448;-76
2023/09/10 02:57:43;;;;;;;12.18;7.38;;;;;;;17.14;100.00;96072.38;4993947;28;24444;-76
2023/09/10 03:00:11;;;;;;;9.48;7.40;;;;;;;17.05;100.00;96076.56;4994458;28;24433;-76
2023/09/10 03:02:38;;;;;;;10.23;7.68;;;;;;;16.91;100.00;96077.75;4993265;28;24964;-76
2023/09/10 03:05:05;;;;;;;10.50;7.97;;;;;;;16.93;100.00;96078.44;4993933;28;24417;-76
2023/09/10 03:07:33;;;;;;;9.50;7.40;;;;;;;16.93;100.00;96081.06;4994055;28;24429;-76
2023/09/10 03:09:59;;;;;;;10.65;8.23;;;;;;;16.78;100.00;96084.13;4993708;28;24432;-76
2023/09/10 03:12:28;;;;;;;9.70;7.67;;;;;;;16.65;100.00;96085.09;4993692;28;24421;-76
2023/09/10 03:14:54;;;;;;;8.80;7.30;;;;;;;16.67;100.00;96077.94;4994252;28;24441;-76
2023/09/10 03:17:22;;;;;;;8.30;7.50;;;;;;;16.75;100.00;96081.75;4992165;28;24433;-76
2023/09/10 03:19:48;;;;;;;11.05;7.97;;;;;;;16.81;100.00;96082.06;4993610;28;24481;-76
2023/09/10 03:22:14;;;;;;;8.93;7.03;;;;;;;16.89;100.00;96081.44;4993160;28;24785;-76
2023/09/10 03:24:42;;;;;;;9.43;7.20;;;;;;;16.88;100.00;96083.22;4994023;28;24428;-76
2023/09/10 03:27:09;;;;;;;8.70;6.45;;;;;;;16.94;100.00;96079.25;4992869;28;24432;-76
2023/09/10 03:29:36;;;;;;;9.07;6.57;;;;;;;16.96;100.00;96079.97;4993393;28;24428;-76
2023/09/10 03:32:04;;;;;;;10.88;7.32;;;;;;;16.88;100.00;96080.63;4993152;28;24417;-76
2023/09/10 03:34:31;;;;;;;8.68;6.65;;;;;;;16.88;100.00;96077.16;4993154;28;24423;-76
2023/09/10 03:36:57;;;;;;;10.48;7.18;;;;;;;16.72;100.00;96072.31;4993277;28;24438;-76
2023/09/10 03:39:23;;;;;;;9.40;7.90;;;;;;;16.67;100.00;96075.34;4992849;28;24455;-76
2023/09/10 03:41:52;;;;;;;9.52;7.22;;;;;;;16.54;100.00;96077.31;4992680;28;24416;-76
2023/09/10 03:44:18;;;;;;;8.35;7.20;;;;;;;16.53;100.00;96075.63;4992963;28;24522;-76
2023/09/10 03:46:45;;;;;;;7.80;7.00;;;;;;;16.59;100.00;96079.53;4993648;28;24436;-76
2023/09/10 03:49:11;;;;;;;10.60;7.85;;;;;;;16.61;100.00;96078.47;4992978;28;24424;-76
2023/09/10 03:51:39;;;;;;;10.48;8.13;;;;;;;16.62;100.00;96082.72;4992610;28;24421;-76
2023/09/10 03:54:07;;;;;;;13.60;7.07;;;;;;;16.69;100.00;96078.66;4993856;28;24421;-76
2023/09/10 03:56:34;;;;;;;8.13;6.85;;;;;;;16.74;100.00;96075.69;4993784;28;24507;-76
2023/09/10 03:59:01;;;;;;;9.15;7.05;;;;;;;16.81;100.00;96079.47;4993403;28;24417;-76
2023/09/10 04:01:29;;;;;;;8.35;6.25;;;;;;;16.82;100.00;96077.66;4993243;28;24421;-76
2023/09/10 04:03:55;;;;;;;6.32;5.70;;;;;;;16.77;100.00;96077.22;4993200;28;24479;-76
2023/09/10 04:06:22;;;;;;;7.57;6.53;;;;;;;16.77;100.00;96082.47;4992923;28;24437;-76
2023/09/10 04:08:49;;;;;;;9.30;6.85;;;;;;;16.63;100.00;96084.38;4992961;28;24488;-76
2023/09/10 04:11:15;;;;;;;8.68;7.00;;;;;;;16.64;100.00;96086.03;4992233;28;24432;-76
2023/09/10 04:13:42;;;;;;;10.18;6.85;;;;;;;16.61;100.00;96082.84;4992624;28;24424;-76
2023/09/10 04:16:10;;;;;;;11.18;7.00;;;;;;;16.50;100.00;96086.34;4992974;28;24453;-76
2023/09/10 04:18:36;;;;;;;8.95;7.57;;;;;;;16.46;100.00;96087.53;4992650;28;24436;-76
2023/09/10 04:21:04;;;;;;;8.63;6.75;;;;;;;16.44;100.00;96094.69;4992465;28;24425;-76
2023/09/10 04:23:30;;;;;;;7.63;6.50;;;;;;;16.53;100.00;96075.63;4992851;28;24461;-76
2023/09/10 04:25:57;;;;;;;10.50;7.05;;;;;;;16.58;100.00;96081.31;4992083;28;24586;-76
2023/09/10 04:28:24;;;;;;;10.73;6.53;;;;;;;16.44;100.00;96092.06;4992551;28;24425;-76
2023/09/10 04:30:50;;;;;;;7.60;5.85;;;;;;;16.28;100.00;96089.03;4991700;28;24424;-76
2023/09/10 04:33:18;;;;;;;9.25;6.55;;;;;;;16.25;100.00;96092.72;4992414;28;24436;-76
2023/09/10 04:35:48;;;;;;;9.80;6.53;;;;;;;16.33;100.00;96099.97;4992808;28;24456;-76
2023/09/10 04:38:15;;;;;;;9.15;6.43;;;;;;;16.27;100.00;96100.44;4992772;28;25047;-76
2023/09/10 04:40:41;;;;;;;6.45;5.85;;;;;;;16.22;100.00;96092.97;4992408;28;24424;-76
2023/09/10 04:43:08;;;;;;;6.75;5.93;;;;;;;16.17;100.00;96093.34;4992652;28;24487;-76
2023/09/10 04:45:36;;;;;;;8.57;6.65;;;;;;;16.14;100.00;96101.44;4992535;28;24512;-76
2023/09/10 04:48:02;;;;;;;8.30;6.47;;;;;;;16.16;100.00;96098.69;4992775;28;24432;-76
2023/09/10 04:50:30;;;;;;;10.88;6.60;;;;;;;16.21;100.00;96099.16;4992810;28;24792;-76
2023/09/10 04:52:56;;;;;;;7.53;6.22;;;;;;;16.25;100.00;96100.56;4992281;28;24425;-76
2023/09/10 04:55:23;;;;;;;7.90;6.18;;;;;;;16.36;100.00;96100.53;4991908;28;24452;-76
2023/09/10 04:57:49;;;;;;;7.32;6.63;;;;;;;16.28;100.00;96108.16;4992063;28;24416;-76
2023/09/10 05:00:16;;;;;;;8.95;6.18;;;;;;;16.28;100.00;96108.16;4991987;28;24417;-76
2023/09/10 05:02:42;;;;;;;6.78;6.15;;;;;;;16.32;100.00;96103.53;4991773;28;24412;-76
2023/09/10 05:05:09;;;;;;;9.57;6.35;;;;;;;16.38;100.00;96108.25;4991869;28;24428;-76
2023/09/10 05:07:37;;;;;;;8.63;6.75;;;;;;;16.40;100.00;96117.63;4992028;28;24444;-76
2023/09/10 05:10:03;;;;;;;8.27;5.97;;;;;;;16.37;100.00;96117.88;4992057;28;24424;-75
2023/09/10 05:12:30;;;;;;;11.38;6.00;;;;;;;16.33;100.00;96110.41;4991175;28;24956;-75
2023/09/10 05:14:56;;;;;;;8.87;6.20;;;;;;;16.36;100.00;96115.41;4991667;28;24432;-75
2023/09/10 05:17:23;;;;;;;7.45;5.40;;;;;;;16.35;100.00;96117.19;4992009;28;24449;-75
2023/09/10 05:19:50;;;;;;;8.98;5.78;;;;;;;16.30;100.00;96116.69;4991705;28;24970;-75
2023/09/10 05:22:17;;;;;;;6.70;5.68;;;;;;;16.27;100.00;96113.50;4991480;28;24484;-75
2023/09/10 05:24:44;;;;;;;7.85;6.05;;;;;;;16.32;100.00;96117.44;4992119;28;24440;-75
2023/09/10 05:27:11;;;;;;;6.85;6.25;;;;;;;16.37;100.00;96117.06;5032056;23;24827;-76
2023/09/10 05:29:37;;;;;;;8.55;6.00;;;;;;;16.34;100.00;96112.06;4993989;28;24796;-76
2023/09/10 05:32:04;;;;;;;9.15;6.03;;;;;;;16.29;100.00;96116.84;4993065;28;24421;-76
2023/09/10 05:34:31;;;;;;;13.07;6.78;;;;;;;16.16;100.00;96115.19;4992969;28;24432;-76
2023/09/10 05:36:57;;;;;;;8.10;6.37;;;;;;;16.15;100.00;96118.75;4992736;28;24452;-76
2023/09/10 05:39:23;;;;;;;13.10;6.93;;;;;;;16.21;100.00;96120.06;4993642;28;24436;-76
2023/09/10 05:41:51;;;;;;;10.60;6.93;;;;;;;16.30;100.00;96115.88;4995621;28;24885;-76
2023/09/10 05:44:18;;;;;;;8.60;7.45;;;;;;;16.31;100.00;96123.59;4996717;28;24963;-76
2023/09/10 05:46:45;;;;;;;8.07;6.38;;;;;;;16.39;100.00;96115.16;4996718;28;24432;-76
2023/09/10 05:49:12;;;;;;;7.95;6.85;;;;;;;16.53;100.00;96117.47;4996846;28;24524;-76
2023/09/10 05:51:38;;;;;;;7.27;6.63;;;;;;;16.67;100.00;96118.97;4996667;28;24555;-77
2023/09/10 05:54:05;;;;;;;9.60;6.60;;;;;;;16.77;100.00;96121.69;4997179;28;24793;-77
2023/09/10 05:56:32;;;;;;;7.63;5.93;;;;;;;16.81;100.00;96125.72;4995920;28;24461;-76
2023/09/10 05:59:00;;;;;;;9.63;6.90;;;;;;;16.80;100.00;96122.28;4995134;28;24437;-77
2023/09/10 06:01:27;;;;;;;8.32;6.35;;;;;;;16.80;100.00;96126.69;4994097;28;24429;-77
2023/09/10 06:03:54;;;;;;;7.57;6.20;;;;;;;16.90;100.00;96120.53;4996846;28;24421;-76
2023/09/10 06:06:20;;;;;;;10.18;6.40;;;;;;;17.04;100.00;96122.03;4997915;28;24787;-77
2023/09/10 06:08:47;;;;;;;9.68;6.50;;;;;;;17.26;100.00;96122.84;4998722;28;24429;-77
2023/09/10 06:11:13;;;;;;;7.38;6.60;;;;;;;17.46;100.00;96126.41;4998426;28;24435;-77
2023/09/10 06:13:40;;;;;;;9.43;6.32;;;;;;;17.65;100.00;96124.72;4999268;28;24424;-78
2023/09/10 06:16:07;;;;;;;9.60;6.40;;;;;;;17.81;100.00;96128.69;5000596;28;24457;-77
2023/09/10 06:18:34;;;;;;;7.83;6.70;;;;;;;18.02;100.00;96131.22;5000963;28;24604;-77
2023/09/10 06:21:00;;;;;;;8.30;6.57;;;;;;;18.13;100.00;96131.97;4998937;28;24980;-76
2023/09/10 06:23:27;;;;;;;8.77;6.70;;;;;;;18.21;100.00;96123.44;4998190;28;24437;-76
2023/09/10 06:25:53;;;;;;;9.18;6.68;;;;;;;18.29;100.00;96131.44;4998363;28;24436;-76
2023/09/10 06:28:24;;;;;;;7.97;6.18;;;;;;;18.41;100.00;96126.09;4997737;28;24424;-76
2023/09/10 06:30:50;;;;;;;7.10;5.85;;;;;;;18.57;100.00;96131.63;4998821;28;24421;-75
2023/09/10 06:33:18;;;;;;;10.43;5.85;;;;;;;18.74;100.00;96132.78;4996896;28;24976;-76
2023/09/10 06:35:44;;;;;;;9.25;5.88;;;;;;;18.45;100.00;96135.34;4992952;28;25167;-75
2023/09/10 06:38:11;;;;;;;8.50;6.47;;;;;;;18.28;100.00;96136.81;4987855;28;24453;-75
2023/09/10 06:40:37;;;;;;;8.55;6.45;;;;;;;18.26;100.00;96138.75;4982035;28;24432;-74
2023/09/10 06:43:05;;;;;;;7.10;6.23;;;;;;;18.13;100.00;96142.44;4982427;28;24421;-74
2023/09/10 06:45:32;;;;;;;6.83;5.77;;;;;;;18.08;100.00;96142.00;4984424;28;24484;-74
2023/09/10 06:47:58;;;;;;;7.00;5.63;;;;;;;18.37;100.00;96139.47;4980841;28;24809;-74
2023/09/10 06:50:26;;;;;;;7.93;5.95;;;;;;;18.55;100.00;96147.50;4983457;28;24433;-74
2023/09/10 06:52:52;;;;;;;7.80;6.00;;;;;;;18.79;100.00;96146.28;4981287;28;24434;-74
2023/09/10 06:55:19;;;;;;;7.00;5.70;;;;;;;19.10;100.00;96147.81;4984533;28;25149;-74
2023/09/10 06:57:45;;;;;;;8.55;6.07;;;;;;;19.43;100.00;96142.22;4984586;28;25012;-74
2023/09/10 07:00:13;;;;;;;6.70;6.10;;;;;;;19.71;100.00;96143.97;4989684;28;24437;-74
2023/09/10 07:02:39;;;;;;;6.90;5.60;;;;;;;19.97;100.00;96145.97;4992518;28;24998;-75
2023/09/10 07:05:06;;;;;;;8.57;5.97;;;;;;;20.27;100.00;96155.38;4992859;28;24427;-74
2023/09/10 07:07:34;;;;;;;7.25;5.70;;;;;;;20.44;100.00;96157.22;4992607;28;24468;-75
2023/09/10 07:10:00;;;;;;;6.65;5.93;;;;;;;20.59;100.00;96143.59;4992777;28;24433;-75
2023/09/10 07:12:27;;;;;;;9.13;6.03;;;;;;;20.21;100.00;96151.53;4992195;28;24831;-75
2023/09/10 07:14:53;;;;;;;8.85;5.70;;;;;;;20.54;100.00;96160.66;4992633;28;24432;-74
2023/09/10 07:17:19;;;;;;;7.60;5.32;;;;;;;20.45;100.00;96156.22;4992392;28;24461;-74
2023/09/10 07:19:46;;;;;;;6.90;5.67;;;;;;;20.47;100.00;96149.03;4992744;28;24432;-74
2023/09/10 07:22:13;;;;;;;8.10;5.60;;;;;;;20.81;100.00;96150.22;4992350;28;24432;-77
2023/09/10 07:24:41;;;;;;;6.83;5.13;;;;;;;21.06;100.00;96151.25;4992257;28;25025;-76
2023/09/10 07:27:08;;;;;;;11.20;5.65;;;;;;;21.36;100.00;96150.03;4991312;28;24453;-75
2023/09/10 07:29:34;;;;;;;6.75;5.28;;;;;;;21.69;100.00;96158.97;4992501;28;24432;-75
2023/09/10 07:32:01;;;;;;;9.10;5.82;;;;;;;21.40;100.00;96165.41;4992207;28;24427;-75
2023/09/10 07:34:27;;;;;;;8.10;5.57;;;;;;;21.22;100.00;96164.56;4992397;28;24425;-76
2023/09/10 07:36:53;;;;;;;8.57;5.70;;;;;;;21.27;100.00;96159.66;4992121;28;24497;-77
2023/09/10 07:39:20;;;;;;;6.45;5.22;;;;;;;21.68;100.00;96152.06;4992252;28;24429;-76
2023/09/10 07:41:48;;;;;;;8.18;5.70;;;;;;;21.99;100.00;96155.88;4974767;28;24433;-76
2023/09/10 07:44:14;;;;;;;7.80;5.55;;;;;;;22.01;100.00;96158.34;4988353;28;24990;-76
2023/09/10 07:46:41;;;;;;;11.88;6.50;;;;;;;21.87;100.00;96153.66;4991827;28;24970;-76
2023/09/10 07:49:07;;;;;;;6.53;5.82;;;;;;;21.82;100.00;96159.41;4992122;28;24425;-76
2023/09/10 07:51:33;;;;;;;6.82;5.32;;;;;;;22.05;100.00;96164.13;4991920;28;24428;-77
2023/09/10 07:54:00;;;;;;;6.28;5.45;;;;;;;22.42;100.00;96164.63;4991938;28;24425;-76
2023/09/10 07:56:27;;;;;;;8.00;5.57;;;;;;;22.89;100.00;96172.03;4991830;28;24507;-77
2023/09/10 07:58:55;;;;;;;9.43;5.73;;;;;;;22.97;100.00;96171.22;4992013;28;24424;-76
2023/09/10 08:01:22;;;;;;;7.38;5.57;;;;;;;22.96;100.00;96168.78;4991566;28;24428;-76
2023/09/10 08:03:48;;;;;;;6.68;5.35;;;;;;;22.85;100.00;96162.78;4991436;28;24424;-77
2023/09/10 08:06:15;;;;;;;5.73;5.13;;;;;;;22.98;100.00;96161.50;4991785;28;24429;-76
2023/09/10 08:08:41;;;;;;;8.40;5.55;;;;;;;23.54;100.00;96167.75;4991822;28;24456;-76
2023/09/10 08:11:07;;;;;;;10.55;5.38;;;;;;;24.02;100.00;96158.09;4991657;28;24424;-76
2023/09/10 08:13:34;;;;;;;11.00;5.65;;;;;;;24.52;100.00;96160.41;4981638;28;24434;-77
2023/09/10 08:16:02;;;;;;;7.57;5.20;;;;;;;24.62;100.00;96162.84;4972089;28;24433;-77
2023/09/10 08:18:28;;;;;;;6.38;4.97;;;;;;;24.98;100.00;96165.75;4972720;28;24424;-77
2023/09/10 08:20:55;;;;;;;8.00;5.57;;;;;;;25.06;100.00;96160.41;4973358;28;24453;-78
2023/09/10 08:23:21;;;;;;;10.40;5.70;;;;;;;25.20;100.00;96158.03;4985211;28;25013;-79
2023/09/10 08:25:51;;;;;;;7.43;5.47;;;;;;;25.18;100.00;96165.31;4992629;28;24432;-76
2023/09/10 08:28:18;;;;;;;9.47;6.27;;;;;;;24.85;100.00;96163.72;4992323;28;24429;-77
2023/09/10 08:30:44;;;;;;;7.47;5.93;;;;;;;24.98;100.00;96165.75;4988295;28;24437;-77
2023/09/10 08:33:12;;;;;;;11.43;6.63;;;;;;;24.79;100.00;96166.22;4991347;28;24428;-78
2023/09/10 08:35:47;;;;;;;9.38;5.97;;;;;;;25.04;100.00;96162.41;4987398;28;24444;-82
2023/09/10 08:38:13;;;;;;;8.80;5.63;;;;;;;25.09;100.00;96168.00;4980671;28;24457;-84
2023/09/10 08:40:46;;;;;;;7.75;5.40;;;;;;;25.12;100.00;96163.41;4982674;28;24973;-81
2023/09/10 08:43:16;;;;;;;6.50;5.78;;;;;;;25.36;100.00;96168.47;4973007;28;24463;-79
2023/09/10 08:45:43;;;;;;;7.07;5.65;;;;;;;25.42;100.00;96167.78;4973168;28;24488;-80
2023/09/10 08:48:10;;;;;;;7.47;5.47;;;;;;;25.45;100.00;96167.44;4973507;28;24519;-78
2023/09/10 08:50:38;;;;;;;15.98;6.00;;;;;;;25.61;100.00;96166.44;4974487;28;24422;-79
2023/09/10 08:53:06;;;;;;;6.88;5.00;;;;;;;25.92;100.00;96168.16;4973616;28;24444;-78
2023/09/10 08:55:35;;;;;;;6.95;5.00;;;;;;;26.36;100.00;96167.31;4973693;28;24461;-79
2023/09/10 08:58:02;;;;;;;9.80;4.78;;;;;;;26.81;100.00;96168.09;4973299;28;24452;-79
2023/09/10 09:00:30;;;;;;;5.90;4.90;;;;;;;27.16;100.00;96167.28;4973683;28;24425;-78
2023/09/10 09:02:57;;;;;;;5.78;4.80;;;;;;;27.25;100.00;96170.59;4975096;28;24817;-79
2023/09/10 09:05:28;;;;;;;6.40;4.65;;;;;;;26.91;100.00;96164.13;4991691;28;24444;-74
2023/09/10 09:08:00;;;;;;;5.90;4.47;;;;;;;26.90;97.57;96162.47;4991674;28;25007;-82
2023/09/10 09:10:27;;;;;;;7.57;4.75;;;;;;;26.54;99.86;96160.63;4991230;28;24525;-77
2023/09/10 09:12:57;;;;;;;9.80;4.82;;;;;;;27.15;100.00;96156.84;4991627;28;24456;-80
2023/09/10 09:15:26;;;;;;;8.88;4.50;;;;;;;27.30;96.80;96162.09;4993222;28;24414;-78
2023/09/10 09:17:56;;;;;;;7.40;4.40;;;;;;;27.80;96.00;96152.25;4995617;28;24994;-82
2023/09/10 09:20:24;;;;;;;7.35;4.38;;;;;;;28.12;83.64;96156.97;4976035;28;24437;-82
2023/09/10 09:22:55;;;;;;;5.45;4.70;;;;;;;27.99;74.65;96151.56;4975523;28;24426;-76
2023/09/10 09:25:23;;;;;;;5.90;4.50;;;;;;;28.26;72.96;96151.72;4975542;28;24421;-77
2023/09/10 09:27:51;;;;;;;7.30;4.78;;;;;;;28.20;74.73;96159.47;4976174;28;24637;-80
2023/09/10 09:30:17;;;;;;;6.75;4.90;;;;;;;27.78;72.44;96146.31;4982844;28;24448;-75
2023/09/10 09:32:46;;;;;;;5.75;4.55;;;;;;;27.76;70.72;96146.50;4982837;28;25018;-72
2023/09/10 09:35:13;;;;;;;7.60;4.90;;;;;;;27.76;71.19;96145.69;4994104;28;24448;-75
2023/09/10 09:37:41;;;;;;;4.35;3.95;;;;;;;27.55;71.12;96144.69;4993797;28;24453;-75
2023/09/10 09:40:09;;;;;;;4.80;4.30;;;;;;;27.66;74.66;96146.84;4993976;28;24440;-73
2023/09/10 09:42:37;;;;;;;6.20;4.68;;;;;;;27.84;72.42;96146.34;4993509;28;24514;-73
2023/09/10 09:45:04;;;;;;;7.05;4.55;;;;;;;28.28;77.85;96147.81;4994258;28;24437;-72
2023/09/10 09:47:31;;;;;;;8.18;4.60;;;;;;;28.69;72.77;96141.66;4993828;28;24465;-72
2023/09/10 09:49:59;;;;;;;10.10;4.70;;;;;;;28.87;71.19;96143.75;4993907;28;24433;-72
2023/09/10 09:52:25;;;;;;;5.97;4.57;;;;;;;28.91;67.22;96134.34;4993489;28;24440;-71
2023/09/10 09:54:52;;;;;;;7.55;4.80;;;;;;;29.00;69.25;96138.50;4993743;28;24560;-71
2023/09/10 09:57:18;;;;;;;8.68;4.70;;;;;;;29.15;67.57;96138.31;4993631;28;24468;-71
2023/09/10 09:59:46;;;;;;;7.00;4.28;;;;;;;29.26;65.17;96139.53;4984132;28;24479;-72
2023/09/10 10:02:15;;;;;;;9.68;4.50;;;;;;;29.29;66.96;96134.63;4983766;28;24445;-73
2023/09/10 10:04:44;;;;;;;6.28;4.57;;;;;;;29.21;64.33;96134.00;4983305;28;24440;-71
2023/09/10 10:07:12;;;;;;;5.45;4.38;;;;;;;29.13;67.70;96129.69;4993331;28;25017;-72
2023/09/10 10:09:41;;;;;;;6.18;4.50;;;;;;;29.53;68.50;96127.84;4993314;28;24429;-71
2023/09/10 10:12:08;;;;;;;5.30;4.38;;;;;;;29.49;69.70;96123.13;4980425;28;24436;-71
2023/09/10 10:14:36;;;;;;;6.60;4.20;;;;;;;28.92;60.87;96130.63;4993261;28;24448;-71
2023/09/10 10:17:05;;;;;;;7.22;5.18;;;;;;;28.32;63.40;96125.09;4992783;28;24853;-72
2023/09/10 10:19:33;;;;;;;9.53;4.73;;;;;;;28.92;68.04;96120.81;4993341;28;24479;-72
2023/09/10 10:22:00;;;;;;;8.23;4.50;;;;;;;29.10;66.47;96122.91;4992571;28;24448;-71
2023/09/10 10:24:27;;;;;;;10.03;5.03;;;;;;;29.17;66.07;96115.72;4993623;28;24532;-73
2023/09/10 10:26:55;;;;;;;5.80;4.38;;;;;;;29.21;64.99;96112.66;4993356;28;24529;-73
2023/09/10 10:29:23;;;;;;;8.45;4.88;;;;;;;29.32;67.63;96115.53;4993982;28;24424;-73
2023/09/10 10:31:56;;;;;;;5.57;4.72;;;;;;;29.19;64.05;96112.88;4991769;28;24437;-74
2023/09/10 10:34:24;;;;;;;6.32;4.75;;;;;;;29.29;64.83;96109.78;4978963;28;25018;-74
2023/09/10 10:37:04;;;;;;;6.57;4.43;;;;;;;29.48;67.07;96098.31;4992638;28;24444;-74
2023/09/10 10:39:38;;;;;;;11.10;4.38;;;;;;;29.59;63.55;96096.88;4992795;28;24440;-74
2023/09/10 10:42:09;;;;;;;7.10;4.20;;;;;;;29.58;60.08;96106.72;4992233;28;24440;-74
2023/09/10 10:44:35;;;;;;;5.80;4.38;;;;;;;29.59;59.50;96105.72;4992927;28;24476;-74
2023/09/10 10:47:11;;;;;;;5.60;4.68;;;;;;;29.39;60.90;96096.88;4993577;28;24459;-73
2023/09/10 10:49:47;;;;;;;9.38;4.50;;;;;;;29.33;64.34;96095.84;4993394;28;24441;-73
2023/09/10 10:52:17;;;;;;;5.30;4.50;;;;;;;29.45;62.12;96087.22;4992144;28;25013;-74
2023/09/10 10:54:44;;;;;;;6.00;3.88;;;;;;;28.90;60.89;96098.03;4992491;28;25065;-73
2023/09/10 10:57:11;;;;;;;7.45;4.40;;;;;;;29.01;64.51;96092.13;4992528;28;24536;-74
2023/09/10 10:59:39;;;;;;;7.20;4.53;;;;;;;28.91;62.57;96086.34;4992702;28;24460;-74
2023/09/10 11:02:21;;;;;;;8.13;4.47;;;;;;;28.50;62.62;96094.47;4992439;28;24440;-74
2023/09/10 11:04:57;;;;;;;6.65;4.30;;;;;;;27.96;64.05;96091.56;4992602;28;24436;-73
2023/09/10 11:07:24;;;;;;;8.20;4.80;;;;;;;27.89;65.56;96090.69;4992563;28;24432;-73
2023/09/10 11:09:51;;;;;;;9.13;4.30;;;;;;;28.39;70.51;96093.19;4992722;28;25021;-73
2023/09/10 11:12:17;;;;;;;5.72;4.40;;;;;;;28.98;66.99;96092.53;4992063;28;24448;-73
2023/09/10 11:15:12;;;;;;;4.90;3.72;;;;;;;28.97;70.13;96084.72;4992340;28;24520;-73
2023/09/10 11:17:38;;;;;;;8.05;4.88;;;;;;;29.15;65.70;96083.13;4991985;28;25007;-73
2023/09/10 11:20:08;;;;;;;7.82;4.60;;;;;;;29.15;61.81;96083.13;4992697;28;24477;-74
2023/09/10 11:23:06;;;;;;;6.78;4.05;;;;;;;28.63;62.09;96084.66;4991618;28;24491;-74
2023/09/10 11:25:33;;;;;;;10.98;4.32;;;;;;;29.11;65.55;96083.75;4990057;28;24503;-73
2023/09/10 11:28:00;;;;;;;11.05;4.05;;;;;;;28.58;63.01;96079.09;4992733;28;24471;-74